Time;durP1;ratioP1;P1;durP2;ratioP2;P2;SDS_P1;SDS_P2;PMS_P1;PMS_P2;Temp;Humidity;BMP_temperature;BMP_pressure;BME280_temperature;BME280_humidity;BME280_pressure;Samples;Min_cycle;Max_cycle;Signal;HPM_P1;HPM_P2
2023/10/17 00:00:28;;;;;;;10.25;5.82;;;7.60;71.60;;;;;;5115941;27;20485;-79
2023/10/17 00:02:56;;;;;;;13.30;6.05;;;7.60;71.60;;;;;;5095538;28;20720;-79
2023/10/17 00:05:26;;;;;;;18.52;6.72;;;7.60;71.40;;;;;;5110183;27;20211;-80
2023/10/17 00:07:58;;;;;;;10.50;6.50;;;7.50;71.40;;;;;;5107921;27;20281;-80
2023/10/17 00:10:32;;;;;;;14.40;6.80;;;7.50;71.50;;;;;;5114917;27;20206;-79
2023/10/17 00:13:18;;;;;;;10.82;6.55;;;7.50;71.50;;;;;;5099248;27;20547;-79
2023/10/17 00:15:47;;;;;;;10.25;5.75;;;7.50;71.60;;;;;;5115504;27;20254;-79
2023/10/17 00:18:18;;;;;;;10.80;6.13;;;7.50;71.60;;;;;;5115997;27;20208;-79
2023/10/17 00:20:50;;;;;;;13.43;8.00;;;7.50;71.60;;;;;;5108942;27;20488;-80
2023/10/17 00:23:21;;;;;;;15.90;6.70;;;7.50;71.50;;;;;;5113849;27;20458;-79
2023/10/17 00:25:50;;;;;;;13.80;6.80;;;7.40;71.60;;;;;;5095418;27;21238;-81
2023/10/17 00:28:20;;;;;;;17.30;7.77;;;7.40;71.70;;;;;;5113664;27;20214;-80
2023/10/17 00:30:50;;;;;;;14.13;7.03;;;7.40;71.70;;;;;;5110751;27;20556;-79
2023/10/17 00:33:23;;;;;;;13.15;6.15;;;7.40;71.70;;;;;;5107146;27;20468;-79
2023/10/17 00:35:54;;;;;;;13.65;6.53;;;7.40;71.60;;;;;;5105152;28;20418;-78
2023/10/17 00:38:23;;;;;;;15.15;7.07;;;7.40;71.70;;;;;;5092074;27;20205;-78
2023/10/17 00:40:51;;;;;;;10.35;6.35;;;7.30;71.70;;;;;;5092418;28;20211;-79
2023/10/17 00:43:20;;;;;;;14.57;6.68;;;7.30;71.70;;;;;;5094596;27;20199;-80
2023/10/17 00:45:49;;;;;;;15.63;6.88;;;7.30;71.80;;;;;;5106496;27;20200;-79
2023/10/17 00:48:22;;;;;;;11.63;6.50;;;7.30;71.90;;;;;;5094588;27;20262;-80
2023/10/17 00:50:56;;;;;;;18.05;8.15;;;7.30;71.90;;;;;;5116551;27;20205;-79
2023/10/17 00:53:26;;;;;;;14.13;6.47;;;7.30;71.80;;;;;;5108441;27;20204;-79
2023/10/17 00:55:56;;;;;;;8.63;5.60;;;7.20;71.70;;;;;;5109589;27;20426;-79
2023/10/17 00:58:24;;;;;;;10.13;6.10;;;7.20;71.80;;;;;;5089504;27;20837;-81
2023/10/17 01:01:09;;;;;;;12.50;6.85;;;7.20;71.90;;;;;;5087372;28;20481;-79
2023/10/17 01:03:43;;;;;;;9.80;6.30;;;7.20;72.00;;;;;;5093491;28;20214;-80
2023/10/17 01:06:23;;;;;;;12.38;6.32;;;7.20;72.00;;;;;;5074927;28;20297;-77
2023/10/17 01:08:54;;;;;;;10.75;6.07;;;7.20;72.00;;;;;;5099024;28;20216;-78
2023/10/17 01:11:22;;;;;;;14.70;6.00;;;7.20;72.00;;;;;;5095552;28;20205;-77
2023/10/17 01:13:52;;;;;;;13.77;7.28;;;7.20;72.00;;;;;;5070417;28;20538;-81
2023/10/17 01:16:24;;;;;;;15.10;7.53;;;7.20;71.90;;;;;;5095944;28;20696;-79
2023/10/17 01:18:53;;;;;;;11.75;6.53;;;7.10;71.80;;;;;;5067358;28;20204;-80
2023/10/17 01:21:22;;;;;;;12.35;5.80;;;7.10;71.80;;;;;;5096608;28;21011;-80
2023/10/17 01:23:51;;;;;;;18.45;6.45;;;7.10;71.90;;;;;;5090909;28;20683;-80
2023/10/17 01:26:23;;;;;;;14.10;6.10;;;7.10;71.90;;;;;;5074763;28;20565;-79
2023/10/17 01:28:54;;;;;;;11.50;6.47;;;7.10;71.90;;;;;;5089632;28;20476;-78
2023/10/17 01:31:25;;;;;;;11.70;6.32;;;7.10;71.90;;;;;;5072680;28;20630;-80
2023/10/17 01:33:55;;;;;;;10.77;5.70;;;7.10;72.00;;;;;;5091493;28;20202;-79
2023/10/17 01:36:24;;;;;;;12.60;6.63;;;7.10;72.00;;;;;;5087789;28;20206;-80
2023/10/17 01:38:54;;;;;;;15.30;6.32;;;7.10;71.90;;;;;;5090141;28;20459;-79
2023/10/17 01:41:25;;;;;;;13.30;6.47;;;7.10;71.90;;;;;;5075752;28;20526;-84
2023/10/17 01:43:54;;;;;;;12.57;6.65;;;7.00;71.80;;;;;;5093815;28;20196;-79
2023/10/17 01:46:23;;;;;;;14.13;6.95;;;7.00;71.80;;;;;;5089213;28;20626;-79
2023/10/17 01:48:54;;;;;;;11.43;5.93;;;7.00;71.80;;;;;;5089463;28;20215;-78
2023/10/17 01:51:24;;;;;;;14.18;6.50;;;7.00;71.80;;;;;;5095035;28;20196;-80
2023/10/17 01:53:53;;;;;;;17.08;6.43;;;7.00;71.90;;;;;;5099042;28;20227;-80
2023/10/17 01:56:25;;;;;;;11.77;6.20;;;6.90;71.90;;;;;;5078640;28;20248;-83
2023/10/17 01:58:59;;;;;;;12.32;6.25;;;6.90;71.80;;;;;;5075788;28;20198;-81
2023/10/17 02:01:31;;;;;;;12.07;5.43;;;6.90;71.90;;;;;;5074100;28;20228;-80
2023/10/17 02:04:03;;;;;;;10.50;6.20;;;6.90;71.80;;;;;;5079376;28;21015;-82
2023/10/17 02:06:33;;;;;;;8.23;5.78;;;6.90;71.80;;;;;;5095645;28;20815;-81
2023/10/17 02:09:19;;;;;;;17.08;7.03;;;6.90;71.80;;;;;;5090314;28;20220;-80
2023/10/17 02:11:50;;;;;;;13.83;6.60;;;6.80;71.70;;;;;;5077968;28;20656;-79
2023/10/17 02:14:20;;;;;;;11.85;6.45;;;6.80;71.60;;;;;;5075529;28;20451;-80
2023/10/17 02:16:49;;;;;;;10.45;6.30;;;6.70;71.60;;;;;;5097319;28;20227;-79
2023/10/17 02:19:19;;;;;;;12.43;5.80;;;6.70;71.60;;;;;;5065588;28;20211;-79
2023/10/17 02:21:50;;;;;;;11.23;6.10;;;6.60;71.60;;;;;;5094622;28;20230;-80
2023/10/17 02:24:21;;;;;;;11.43;6.03;;;6.60;71.70;;;;;;5082194;28;20191;-81
2023/10/17 02:26:56;;;;;;;11.38;6.88;;;6.60;71.60;;;;;;5094826;28;20670;-78
2023/10/17 02:29:29;;;;;;;13.77;7.18;;;6.50;71.40;;;;;;5074611;28;20607;-80
2023/10/17 02:41:18;;;;;;;15.23;6.90;;;6.30;71.50;;;;;;5086075;28;20264;-80
2023/10/17 02:43:47;;;;;;;10.77;6.60;;;6.20;71.40;;;;;;5088107;28;20294;-78
2023/10/17 02:46:18;;;;;;;12.40;6.65;;;6.10;71.40;;;;;;5088252;28;20196;-78
2023/10/17 02:48:47;;;;;;;13.30;6.55;;;6.10;71.60;;;;;;5103133;28;20229;-77
2023/10/17 02:51:33;;;;;;;11.88;6.95;;;6.10;71.60;;;;;;5088655;28;20251;-79
2023/10/17 02:54:12;;;;;;;14.70;7.25;;;6.10;71.70;;;;;;5085272;28;20294;-80
2023/10/17 02:56:46;;;;;;;14.18;7.70;;;6.10;71.80;;;;;;5076260;28;20210;-82
2023/10/17 02:59:17;;;;;;;14.63;7.88;;;6.00;71.80;;;;;;5091150;28;20286;-80
2023/10/17 03:01:52;;;;;;;16.40;8.10;;;6.10;71.90;;;;;;5093596;27;20271;-80
2023/10/17 03:04:24;;;;;;;14.18;7.57;;;6.10;71.90;;;;;;5100073;27;20213;-81
2023/10/17 03:06:56;;;;;;;24.35;8.52;;;6.10;71.90;;;;;;5114378;27;20281;-79
2023/10/17 03:09:36;;;;;;;16.58;8.90;;;6.10;71.90;;;;;;5120233;27;20214;-83
2023/10/17 03:12:09;;;;;;;20.05;8.35;;;6.10;71.90;;;;;;5114694;27;20197;-81
2023/10/17 03:15:17;;;;;;;15.00;7.43;;;6.10;71.90;;;;;;5112448;27;20210;-81
2023/10/17 03:17:31;;;;;;;13.88;7.45;;;6.10;72.00;;;;;;5102468;27;20202;-79
2023/10/17 03:19:59;;;;;;;18.00;7.40;;;6.10;71.90;;;;;;5102428;28;20216;-78
2023/10/17 03:22:27;;;;;;;15.57;8.30;;;6.10;71.90;;;;;;5095428;27;20224;-80
2023/10/17 03:25:02;;;;;;;17.40;8.05;;;6.10;71.80;;;;;;5092691;28;20221;-80
2023/10/17 03:27:37;;;;;;;15.05;8.82;;;6.00;71.80;;;;;;5105199;27;20198;-77
2023/10/17 03:30:08;;;;;;;13.80;8.25;;;6.10;71.90;;;;;;5102025;27;20239;-78
2023/10/17 03:32:52;;;;;;;11.10;7.15;;;6.00;71.80;;;;;;5077597;28;20231;-80
2023/10/17 03:35:25;;;;;;;12.65;7.43;;;6.00;71.70;;;;;;5093487;28;20608;-79
2023/10/17 03:37:54;;;;;;;15.85;7.53;;;5.90;71.60;;;;;;5099662;28;20198;-79
2023/10/17 03:40:30;;;;;;;13.23;7.28;;;5.90;71.70;;;;;;5095853;28;20629;-79
2023/10/17 03:43:01;;;;;;;16.55;7.68;;;5.90;71.90;;;;;;5088682;28;20226;-78
2023/10/17 03:45:43;;;;;;;19.80;8.55;;;5.90;72.00;;;;;;5097585;28;20199;-79
2023/10/17 03:48:21;;;;;;;16.13;8.18;;;5.90;71.90;;;;;;5095053;28;20201;-79
2023/10/17 03:50:58;;;;;;;14.70;8.23;;;5.80;71.90;;;;;;5079781;28;20210;-80
2023/10/17 03:53:29;;;;;;;17.90;8.70;;;5.80;72.00;;;;;;5075507;28;20599;-80
2023/10/17 03:56:00;;;;;;;17.20;10.48;;;5.90;72.20;;;;;;5078408;28;20207;-80
2023/10/17 03:58:43;;;;;;;20.70;11.27;;;5.90;72.30;;;;;;5097512;28;20653;-80
2023/10/17 04:01:12;;;;;;;33.13;13.10;;;6.00;72.30;;;;;;5088715;28;20231;-80
2023/10/17 04:03:44;;;;;;;30.58;11.68;;;6.10;72.30;;;;;;5086034;28;20218;-80
2023/10/17 04:06:23;;;;;;;23.60;11.15;;;6.10;72.30;;;;;;5069108;28;20673;-80
2023/10/17 04:08:56;;;;;;;17.38;8.90;;;6.10;72.30;;;;;;5083031;28;20221;-78
2023/10/17 04:11:28;;;;;;;14.82;9.48;;;6.20;72.20;;;;;;5094117;28;20227;-80
2023/10/17 04:14:00;;;;;;;22.13;9.50;;;6.20;72.20;;;;;;5090177;28;20729;-80
2023/10/17 04:16:33;;;;;;;26.90;9.60;;;6.20;72.20;;;;;;5067971;28;20209;-79
2023/10/17 04:19:07;;;;;;;17.35;9.82;;;6.20;72.20;;;;;;5071903;28;20223;-78
2023/10/17 04:21:38;;;;;;;18.38;8.55;;;6.20;72.20;;;;;;5072029;28;20205;-78
2023/10/17 04:24:07;;;;;;;18.40;8.07;;;6.20;72.20;;;;;;5093947;28;20257;-79
2023/10/17 04:26:35;;;;;;;14.38;8.20;;;6.20;72.20;;;;;;5090111;28;20205;-79
2023/10/17 04:29:12;;;;;;;22.88;7.97;;;6.20;72.20;;;;;;5090803;28;20249;-79
2023/10/17 04:31:43;;;;;;;16.23;7.75;;;6.20;72.20;;;;;;5084161;28;20230;-79
2023/10/17 04:34:17;;;;;;;12.68;8.15;;;6.20;72.20;;;;;;5113851;27;20198;-79
2023/10/17 04:36:53;;;;;;;19.30;9.00;;;6.30;72.20;;;;;;5098631;28;20652;-79
2023/10/17 04:39:34;;;;;;;13.63;8.40;;;6.20;72.20;;;;;;5116182;27;20200;-79
2023/10/17 04:42:06;;;;;;;16.75;7.53;;;6.20;72.20;;;;;;5112491;27;20389;-79
2023/10/17 04:44:34;;;;;;;19.52;9.68;;;6.20;72.30;;;;;;5118864;27;20604;-80
2023/10/17 04:49:53;;;;;;;16.40;8.25;;;6.30;72.40;;;;;;5121258;27;20693;-80
2023/10/17 04:52:28;;;;;;;13.05;7.10;;;6.30;72.40;;;;;;5115291;27;20191;-78
2023/10/17 04:55:09;;;;;;;13.85;8.10;;;6.30;72.40;;;;;;5118245;27;20216;-78
2023/10/17 04:57:57;;;;;;;13.30;8.40;;;6.30;72.40;;;;;;5111458;27;20218;-80
2023/10/17 05:00:42;;;;;;;17.85;8.68;;;6.30;72.40;;;;;;5108694;27;20192;-81
2023/10/17 05:03:26;;;;;;;14.73;7.68;;;6.30;72.40;;;;;;5105939;27;20663;-81
2023/10/17 05:06:21;;;;;;;12.85;7.90;;;6.30;72.50;;;;;;5109619;27;20203;-79
2023/10/17 05:09:00;;;;;;;13.88;8.30;;;6.30;72.50;;;;;;5091193;28;20216;-80
2023/10/17 06:18:26;;;;;;;11.55;7.47;;;6.40;73.20;;;;;;5114571;27;20194;-79
2023/10/17 06:35:20;;;;;;;12.95;6.78;;;6.50;73.40;;;;;;5098173;27;20233;-80
2023/10/17 06:37:49;;;;;;;12.00;7.45;;;6.50;73.30;;;;;;5118676;27;20202;-80
2023/10/17 06:40:18;;;;;;;13.85;7.32;;;6.50;73.30;;;;;;5115310;27;20208;-77
2023/10/17 06:42:49;;;;;;;12.32;7.35;;;6.50;73.40;;;;;;5117694;27;20851;-79
2023/10/17 06:45:21;;;;;;;11.68;7.30;;;6.50;73.30;;;;;;5109562;27;20210;-78
2023/10/17 06:47:49;;;;;;;11.95;7.43;;;6.40;73.40;;;;;;5111631;27;20218;-78
2023/10/17 06:51:02;;;;;;;14.77;9.32;;;6.40;73.40;;;;;;5119311;27;20219;-79
2023/10/17 06:53:11;;;;;;;16.45;9.75;;;6.40;73.50;;;;;;5118685;27;20208;-80
2023/10/17 06:55:44;;;;;;;18.20;11.07;;;6.50;73.80;;;;;;5117399;27;20689;-78
2023/10/17 06:58:14;;;;;;;25.80;15.70;;;6.50;73.70;;;;;;5111949;27;20714;-78
2023/10/17 07:00:49;;;;;;;27.13;15.82;;;6.40;73.80;;;;;;5093067;27;20242;-80
2023/10/17 07:03:24;;;;;;;22.02;14.23;;;6.50;74.00;;;;;;5111797;27;20258;-80
2023/10/17 07:06:03;;;;;;;22.40;14.23;;;6.50;74.20;;;;;;5114078;27;20603;-79
2023/10/17 07:08:36;;;;;;;34.53;21.35;;;6.50;74.30;;;;;;5125484;27;20591;-78
2023/10/17 07:11:09;;;;;;;26.13;16.92;;;6.60;74.50;;;;;;5113731;27;20219;-79
2023/10/17 07:13:54;;;;;;;22.50;13.38;;;6.60;74.50;;;;;;5101984;27;20300;-79
2023/10/17 07:16:33;;;;;;;19.52;11.40;;;6.70;74.60;;;;;;5093548;27;20206;-79
2023/10/17 07:19:46;;;;;;;15.90;9.55;;;6.70;74.80;;;;;;5112194;27;20195;-77
2023/10/17 07:22:05;;;;;;;15.13;9.05;;;6.80;75.00;;;;;;5109666;27;20194;-79
2023/10/17 07:24:36;;;;;;;19.08;9.40;;;6.90;74.90;;;;;;5105251;27;20201;-78
2023/10/17 07:27:11;;;;;;;18.43;9.70;;;6.90;75.00;;;;;;5112933;27;20192;-80
2023/10/17 07:29:45;;;;;;;20.25;9.90;;;6.90;75.10;;;;;;5116740;27;20460;-79
2023/10/17 07:32:17;;;;;;;12.98;8.45;;;7.00;75.20;;;;;;5112858;27;20222;-79
2023/10/17 07:34:45;;;;;;;13.10;7.95;;;7.00;75.30;;;;;;5115007;27;20595;-80
2023/10/17 07:37:22;;;;;;;14.90;8.07;;;7.00;75.40;;;;;;5099014;27;20582;-79
2023/10/17 07:42:40;;;;;;;10.85;6.30;;;7.00;75.60;;;;;;5092713;27;20293;-75
2023/10/17 07:45:15;;;;;;;12.93;7.88;;;7.00;75.70;;;;;;5115584;27;20226;-79
2023/10/17 07:47:51;;;;;;;13.02;7.43;;;7.00;75.90;;;;;;5118542;27;20266;-79
2023/10/17 07:50:20;;;;;;;11.77;7.40;;;7.10;76.00;;;;;;5118064;27;20213;-78
2023/10/17 07:52:51;;;;;;;11.30;7.30;;;7.10;76.00;;;;;;5121411;27;20466;-78
2023/10/17 07:55:22;;;;;;;13.20;8.27;;;7.20;76.20;;;;;;5122013;27;20513;-80
2023/10/17 07:57:53;;;;;;;12.77;7.23;;;7.20;76.10;;;;;;5115129;27;20215;-78
2023/10/17 08:00:33;;;;;;;16.07;7.60;;;7.30;76.20;;;;;;5116550;27;20536;-79
2023/10/17 08:03:07;;;;;;;20.13;10.07;;;7.30;76.30;;;;;;5114807;27;20526;-77
2023/10/17 08:05:44;;;;;;;13.37;8.20;;;7.40;76.30;;;;;;5109349;27;20456;-79
2023/10/17 08:08:14;;;;;;;14.80;7.47;;;7.40;76.30;;;;;;5110431;27;20458;-79
2023/10/17 08:10:45;;;;;;;25.23;7.87;;;7.40;76.40;;;;;;5109191;27;20226;-80
2023/10/17 08:13:15;;;;;;;12.97;7.37;;;7.50;76.50;;;;;;5101437;27;20528;-80
2023/10/17 08:15:48;;;;;;;13.83;8.73;;;7.50;76.60;;;;;;5100914;27;20490;-79
2023/10/17 08:18:22;;;;;;;15.90;7.37;;;7.60;76.60;;;;;;5123626;27;20795;-78
2023/10/17 08:21:33;;;;;;;14.15;6.85;;;7.70;76.50;;;;;;5097258;27;20464;-82
2023/10/17 08:23:57;;;;;;;12.13;7.77;;;7.80;76.50;;;;;;5111073;27;20204;-78
2023/10/17 08:26:29;;;;;;;13.07;6.73;;;7.80;76.50;;;;;;5098926;27;20462;-77
2023/10/17 08:29:00;;;;;;;10.17;6.40;;;7.80;76.60;;;;;;5112648;27;20461;-79
2023/10/17 08:31:35;;;;;;;11.77;7.60;;;7.90;76.60;;;;;;5115422;27;20484;-78
2023/10/17 08:34:09;;;;;;;12.90;7.40;;;7.90;76.60;;;;;;5112053;27;20451;-78
2023/10/17 08:36:46;;;;;;;11.60;6.07;;;8.00;76.60;;;;;;5105984;27;20458;-79
2023/10/17 08:39:51;;;;;;;13.20;7.17;;;8.00;76.60;;;;;;5091140;28;20991;-80
2023/10/17 08:42:30;;;;;;;11.73;7.47;;;8.00;76.60;;;;;;5114656;27;20477;-79
2023/10/17 08:44:59;;;;;;;11.20;6.30;;;8.00;76.70;;;;;;5110262;28;20456;-79
2023/10/17 08:47:30;;;;;;;10.17;6.80;;;8.00;76.60;;;;;;5116283;27;20478;-80
2023/10/17 08:50:04;;;;;;;14.40;6.77;;;8.00;76.60;;;;;;5119059;27;20469;-81
2023/10/17 08:52:35;;;;;;;16.70;6.47;;;8.00;76.70;;;;;;5110934;27;20482;-80
2023/10/17 08:55:04;;;;;;;11.67;6.70;;;8.00;76.70;;;;;;5111212;27;20562;-79
2023/10/17 08:57:33;;;;;;;11.97;7.17;;;8.10;76.70;;;;;;5116980;27;20553;-79
2023/10/17 09:00:23;;;;;;;15.23;8.70;;;8.10;76.70;;;;;;5118560;27;20529;-81
2023/10/17 09:03:00;;;;;;;11.13;7.20;;;8.10;76.60;;;;;;5113092;27;20950;-80
2023/10/17 09:05:30;;;;;;;11.47;7.00;;;8.20;76.60;;;;;;5117477;27;20456;-79
2023/10/17 09:08:02;;;;;;;13.40;6.70;;;8.20;76.60;;;;;;5109976;27;20443;-80
2023/10/17 09:10:37;;;;;;;11.30;6.70;;;8.30;76.50;;;;;;5093128;28;20459;-79
2023/10/17 09:13:42;;;;;;;12.87;7.17;;;8.30;76.40;;;;;;5108116;28;20478;-79
2023/10/17 09:16:13;;;;;;;14.53;9.60;;;8.30;76.30;;;;;;5113801;28;20477;-81
2023/10/17 09:18:47;;;;;;;16.30;7.70;;;8.30;76.30;;;;;;5086848;28;20571;-81
2023/10/17 09:21:20;;;;;;;15.03;7.40;;;8.30;76.10;;;;;;5105289;28;20545;-79
2023/10/17 09:23:50;;;;;;;15.47;8.07;;;8.40;76.10;;;;;;5085445;28;20483;-79
2023/10/17 09:26:20;;;;;;;12.57;7.13;;;8.40;76.10;;;;;;5114636;28;20463;-80
2023/10/17 09:28:48;;;;;;;15.10;8.70;;;8.40;76.10;;;;;;5106411;28;20475;-80
2023/10/17 09:31:17;;;;;;;12.67;7.50;;;8.40;76.10;;;;;;5120202;28;21027;-79
2023/10/17 09:33:48;;;;;;;12.10;7.30;;;8.50;76.10;;;;;;5114044;28;20490;-79
2023/10/17 09:36:18;;;;;;;11.43;7.90;;;8.60;76.00;;;;;;5106319;28;20964;-80
2023/10/17 09:38:47;;;;;;;14.33;7.30;;;8.60;75.90;;;;;;5123667;28;20470;-80
2023/10/17 09:41:18;;;;;;;12.80;6.90;;;8.60;75.80;;;;;;5109285;28;20859;-78
2023/10/17 09:43:49;;;;;;;16.73;9.90;;;8.70;75.70;;;;;;5104679;28;20470;-80
2023/10/17 09:46:20;;;;;;;11.03;6.67;;;8.70;75.70;;;;;;5108692;28;20540;-80
2023/10/17 09:48:51;;;;;;;11.90;6.47;;;8.80;75.60;;;;;;5112614;28;20461;-79
2023/10/17 09:51:22;;;;;;;10.00;6.50;;;8.90;75.50;;;;;;5094355;28;20506;-80
2023/10/17 09:53:54;;;;;;;16.03;6.10;;;8.90;75.40;;;;;;5119430;28;20506;-79
2023/10/17 09:56:28;;;;;;;13.70;7.13;;;9.00;75.40;;;;;;5114245;28;20444;-79
2023/10/17 09:59:02;;;;;;;12.57;6.20;;;9.10;75.20;;;;;;5102289;28;20496;-79
2023/10/17 10:01:32;;;;;;;11.70;6.07;;;9.10;75.00;;;;;;5085697;28;20464;-78
2023/10/17 10:04:02;;;;;;;12.60;6.30;;;9.10;75.00;;;;;;5114002;28;20464;-78
2023/10/17 10:06:33;;;;;;;10.37;7.90;;;9.10;75.00;;;;;;5114368;28;20453;-79
2023/10/17 10:09:26;;;;;;;11.70;7.20;;;9.20;74.90;;;;;;5113037;28;20534;-80
2023/10/17 10:11:58;;;;;;;15.50;6.10;;;9.20;74.70;;;;;;5086825;28;20486;-80
2023/10/17 10:14:40;;;;;;;16.47;6.70;;;9.30;74.70;;;;;;5111318;28;20459;-80
2023/10/17 10:17:10;;;;;;;9.20;5.60;;;9.40;74.70;;;;;;5107080;28;20463;-82
2023/10/17 10:19:57;;;;;;;13.50;6.43;;;9.40;74.50;;;;;;5113714;27;20450;-81
2023/10/17 10:22:51;;;;;;;9.67;5.33;;;9.50;74.40;;;;;;5095594;28;20864;-80
2023/10/17 10:25:22;;;;;;;10.87;5.90;;;9.50;74.20;;;;;;5093505;28;20546;-83
2023/10/17 10:28:25;;;;;;;11.43;6.23;;;9.50;74.10;;;;;;5101239;27;20479;-82
2023/10/17 10:30:54;;;;;;;10.33;5.40;;;9.50;74.00;;;;;;5085306;27;20498;-79
2023/10/17 10:33:28;;;;;;;12.13;6.57;;;9.50;74.00;;;;;;5125477;27;20907;-80
2023/10/17 10:35:56;;;;;;;12.97;5.77;;;9.50;73.80;;;;;;5102171;27;20460;-81
2023/10/17 10:38:30;;;;;;;13.40;6.37;;;9.60;73.70;;;;;;5099330;27;20451;-79
2023/10/17 10:41:07;;;;;;;10.60;5.47;;;9.60;73.70;;;;;;5090591;28;20463;-82
2023/10/17 10:43:35;;;;;;;17.73;7.93;;;9.70;73.50;;;;;;5115177;27;20915;-82
2023/10/17 10:46:03;;;;;;;11.90;6.37;;;9.70;73.50;;;;;;5114006;27;21123;-81
2023/10/17 10:48:32;;;;;;;11.90;6.23;;;9.70;73.30;;;;;;5122412;27;20455;-81
2023/10/17 10:51:00;;;;;;;10.03;5.57;;;9.70;73.20;;;;;;5101230;27;20975;-83
2023/10/17 10:53:35;;;;;;;12.43;6.43;;;9.70;73.20;;;;;;5111408;27;20589;-82
2023/10/17 10:56:06;;;;;;;12.13;5.70;;;9.80;73.10;;;;;;5113459;27;20512;-80
2023/10/17 10:58:44;;;;;;;11.87;5.53;;;9.80;73.10;;;;;;5108094;27;20462;-82
2023/10/17 11:01:12;;;;;;;9.50;5.20;;;9.80;73.00;;;;;;5100405;27;21315;-83
2023/10/17 11:03:42;;;;;;;12.23;6.33;;;9.80;72.90;;;;;;5116291;27;20452;-81
2023/10/17 11:06:10;;;;;;;12.10;6.60;;;9.80;72.80;;;;;;5119982;27;20444;-82
2023/10/17 11:08:43;;;;;;;11.00;5.80;;;9.90;72.70;;;;;;5098877;28;20512;-81
2023/10/17 11:11:15;;;;;;;12.50;7.27;;;9.90;72.60;;;;;;5115876;27;20469;-79
2023/10/17 11:13:45;;;;;;;14.77;6.30;;;10.00;72.50;;;;;;5121148;27;20488;-83
2023/10/17 11:16:17;;;;;;;11.37;5.63;;;10.00;72.30;;;;;;5115308;27;20961;-80
2023/10/17 11:18:46;;;;;;;11.50;6.30;;;10.00;72.20;;;;;;5108186;27;20452;-83
2023/10/17 11:21:17;;;;;;;20.33;10.90;;;10.00;72.10;;;;;;5118418;27;20978;-83
2023/10/17 11:23:50;;;;;;;28.23;13.67;;;10.10;72.00;;;;;;5110121;27;20527;-80
2023/10/17 11:26:21;;;;;;;13.90;6.30;;;10.10;72.00;;;;;;5108474;27;20539;-80
2023/10/17 11:28:56;;;;;;;9.53;5.77;;;10.10;71.90;;;;;;5109074;27;20449;-81
2023/10/17 11:31:27;;;;;;;9.87;5.30;;;10.10;71.90;;;;;;5114981;27;20836;-80
2023/10/17 11:33:57;;;;;;;9.87;4.53;;;10.20;71.70;;;;;;5096339;27;20466;-79
2023/10/17 11:36:35;;;;;;;10.93;4.63;;;10.20;71.70;;;;;;5111103;27;21000;-81
2023/10/17 11:39:06;;;;;;;12.23;4.63;;;10.20;71.60;;;;;;5112309;27;20455;-82
2023/10/17 11:41:46;;;;;;;8.90;5.23;;;10.30;71.50;;;;;;5114050;27;20448;-81
2023/10/17 11:44:15;;;;;;;8.67;4.63;;;10.30;71.40;;;;;;5114561;27;20447;-82
2023/10/17 11:46:55;;;;;;;10.03;4.40;;;10.30;71.40;;;;;;5097445;27;20474;-83
2023/10/17 11:49:27;;;;;;;13.80;5.17;;;10.30;71.30;;;;;;5113381;27;20440;-79
2023/10/17 11:52:00;;;;;;;11.83;5.20;;;10.40;71.30;;;;;;5111695;27;20451;-83
2023/10/17 11:54:30;;;;;;;9.63;5.30;;;10.40;71.30;;;;;;5111564;27;20996;-82
2023/10/17 11:57:13;;;;;;;13.67;7.83;;;10.50;71.30;;;;;;5095947;27;20460;-80
2023/10/17 12:00:02;;;;;;;9.67;5.20;;;10.50;71.20;;;;;;5120348;27;20559;-80
2023/10/17 12:02:31;;;;;;;11.13;4.87;;;10.60;71.20;;;;;;5121078;27;20978;-80
2023/10/17 12:05:01;;;;;;;7.47;4.43;;;10.60;71.10;;;;;;5112165;27;20520;-80
2023/10/17 12:07:30;;;;;;;9.17;4.37;;;10.60;70.90;;;;;;5115321;27;20526;-80
2023/10/17 12:10:04;;;;;;;9.10;4.17;;;10.70;70.90;;;;;;5106771;27;20466;-77
2023/10/17 12:12:34;;;;;;;6.90;3.33;;;10.70;70.70;;;;;;5101352;27;20455;-78
2023/10/17 12:15:04;;;;;;;10.17;5.10;;;10.70;70.60;;;;;;5113564;27;20829;-81
2023/10/17 12:17:32;;;;;;;11.60;4.30;;;10.70;70.40;;;;;;5120439;27;20548;-80
2023/10/17 12:20:00;;;;;;;8.30;4.60;;;10.80;70.40;;;;;;5095568;27;20455;-81
2023/10/17 12:22:31;;;;;;;8.50;3.57;;;10.80;70.30;;;;;;5112964;27;20439;-81
2023/10/17 12:25:00;;;;;;;9.10;4.00;;;10.80;70.20;;;;;;5095738;28;20588;-80
2023/10/17 12:27:29;;;;;;;6.87;4.07;;;10.90;70.10;;;;;;5117236;27;20448;-78
2023/10/17 12:29:57;;;;;;;10.83;3.97;;;10.90;69.90;;;;;;5120939;27;20505;-80
2023/10/17 12:32:25;;;;;;;8.43;4.20;;;10.90;69.70;;;;;;5121773;27;20471;-80
2023/10/17 12:34:54;;;;;;;8.10;4.30;;;10.90;69.50;;;;;;5118866;27;21159;-82
2023/10/17 12:37:22;;;;;;;6.13;3.60;;;10.90;69.50;;;;;;5116814;27;20459;-79
2023/10/17 12:39:52;;;;;;;7.00;4.07;;;10.90;69.30;;;;;;5116129;27;20449;-80
2023/10/17 12:42:23;;;;;;;10.20;5.60;;;10.90;69.20;;;;;;5116908;27;20440;-80
2023/10/17 12:44:58;;;;;;;11.90;4.90;;;10.90;69.20;;;;;;5121749;27;20443;-80
2023/10/17 12:47:26;;;;;;;9.30;4.27;;;11.00;69.10;;;;;;5124234;27;20462;-80
2023/10/17 12:49:54;;;;;;;10.70;5.10;;;11.00;69.00;;;;;;5101445;28;20571;-78
2023/10/17 12:52:22;;;;;;;13.23;4.90;;;11.00;68.80;;;;;;5097074;27;20460;-81
2023/10/17 12:54:51;;;;;;;13.77;5.20;;;11.00;68.80;;;;;;5104440;27;20478;-79
2023/10/17 12:57:19;;;;;;;12.47;6.57;;;11.00;68.80;;;;;;5117823;27;20462;-81
2023/10/17 12:59:49;;;;;;;10.03;5.47;;;11.10;68.70;;;;;;5113819;27;20459;-81
2023/10/17 13:02:17;;;;;;;11.30;5.83;;;11.10;68.60;;;;;;5093038;27;20482;-79
2023/10/17 13:04:45;;;;;;;8.60;3.90;;;11.20;68.40;;;;;;5124732;27;20522;-80
2023/10/17 13:07:15;;;;;;;18.87;5.60;;;11.20;68.20;;;;;;5115919;27;20512;-81
2023/10/17 13:09:43;;;;;;;8.83;4.70;;;11.20;68.20;;;;;;5107542;27;20447;-80
2023/10/17 13:12:11;;;;;;;13.00;4.50;;;11.30;68.10;;;;;;5089871;28;20459;-78
2023/10/17 13:14:42;;;;;;;10.77;4.10;;;11.30;68.00;;;;;;5115109;27;20464;-81
2023/10/17 13:17:22;;;;;;;8.77;4.53;;;11.40;67.90;;;;;;5096247;27;20447;-82
2023/10/17 13:19:58;;;;;;;7.03;4.00;;;11.50;67.70;;;;;;5113915;27;20818;-81
2023/10/17 13:22:28;;;;;;;9.07;3.37;;;11.50;67.40;;;;;;5105319;28;21448;-83
2023/10/17 13:24:56;;;;;;;10.00;3.53;;;11.50;67.40;;;;;;5108240;28;20458;-80
2023/10/17 13:27:24;;;;;;;7.73;3.70;;;11.60;67.30;;;;;;5091899;28;20530;-82
2023/10/17 13:29:54;;;;;;;6.60;3.13;;;11.60;67.20;;;;;;5114688;28;20459;-80
2023/10/17 13:32:24;;;;;;;10.90;3.87;;;11.70;67.20;;;;;;5107672;28;20471;-82
2023/10/17 13:34:52;;;;;;;13.57;3.90;;;11.70;67.00;;;;;;5095715;28;20483;-80
2023/10/17 13:37:20;;;;;;;8.30;3.37;;;11.70;66.90;;;;;;5094666;28;20532;-83
2023/10/17 13:39:48;;;;;;;13.37;3.73;;;11.80;66.70;;;;;;5094800;28;20538;-81
2023/10/17 13:42:16;;;;;;;7.47;3.80;;;11.80;66.60;;;;;;5114178;28;20451;-82
2023/10/17 13:44:49;;;;;;;8.23;4.03;;;11.80;66.50;;;;;;5090533;28;20476;-82
2023/10/17 13:47:17;;;;;;;11.37;3.60;;;11.80;66.40;;;;;;5093574;28;20463;-78
2023/10/17 13:49:47;;;;;;;7.67;3.40;;;11.80;66.20;;;;;;5092026;28;20459;-83
2023/10/17 13:52:17;;;;;;;9.30;4.10;;;11.80;66.00;;;;;;5109956;28;20961;-82
2023/10/17 13:54:46;;;;;;;7.13;3.10;;;11.90;65.90;;;;;;5115003;27;20570;-82
2023/10/17 13:57:16;;;;;;;7.50;3.73;;;11.90;65.80;;;;;;5110323;27;20524;-83
2023/10/17 13:59:48;;;;;;;7.90;3.07;;;11.90;65.80;;;;;;5099693;28;20533;-80
2023/10/17 14:02:17;;;;;;;6.07;2.83;;;11.90;65.70;;;;;;5115920;27;20917;-80
2023/10/17 14:04:48;;;;;;;8.67;2.83;;;12.00;65.50;;;;;;5127052;27;20431;-80
2023/10/17 14:07:18;;;;;;;8.70;3.37;;;12.00;65.30;;;;;;5120087;27;20470;-81
2023/10/17 14:09:50;;;;;;;6.80;3.17;;;12.00;65.10;;;;;;5120472;27;20460;-82
2023/10/17 14:12:18;;;;;;;9.13;3.73;;;12.10;65.00;;;;;;5090825;27;20451;-82
2023/10/17 14:14:47;;;;;;;8.70;3.57;;;12.10;64.90;;;;;;5114203;27;20496;-83
2023/10/17 14:17:15;;;;;;;8.97;3.73;;;12.10;64.80;;;;;;5114816;27;20463;-83
2023/10/17 14:19:45;;;;;;;8.43;3.40;;;12.10;64.60;;;;;;5109852;27;20448;-82
2023/10/17 14:22:38;;;;;;;9.07;3.87;;;12.20;64.30;;;;;;5113730;27;20483;-81
2023/10/17 14:25:07;;;;;;;7.67;3.87;;;12.20;64.20;;;;;;5111405;27;20547;-82
2023/10/17 14:27:36;;;;;;;14.10;4.03;;;12.20;64.30;;;;;;5097322;28;20470;-82
2023/10/17 14:30:07;;;;;;;6.40;2.87;;;12.20;64.20;;;;;;5093040;27;20459;-84
2023/10/17 14:32:36;;;;;;;6.20;2.53;;;12.30;64.10;;;;;;5075456;28;20559;-81
2023/10/17 14:35:04;;;;;;;9.13;2.93;;;12.30;64.00;;;;;;5085609;28;20465;-82
2023/10/17 14:37:34;;;;;;;7.43;2.80;;;12.30;64.00;;;;;;5090706;28;20525;-83
2023/10/17 14:40:08;;;;;;;7.30;3.00;;;12.30;63.80;;;;;;5075728;28;20469;-81
2023/10/17 14:42:40;;;;;;;16.60;6.17;;;12.30;63.80;;;;;;5089067;28;20472;-83
2023/10/17 14:45:09;;;;;;;10.80;4.63;;;12.30;63.70;;;;;;5075543;28;20449;-81
2023/10/17 14:47:37;;;;;;;9.90;4.50;;;12.30;63.60;;;;;;5099782;28;20464;-82
2023/10/17 14:50:09;;;;;;;11.43;5.40;;;12.30;63.50;;;;;;5093853;28;21208;-83